createdAt,value
2023-01-30T00:00:39.624Z,4.9
2023-01-30T00:06:59.679Z,4.9
2023-01-30T00:13:22.589Z,4.1
2023-01-30T00:19:42.552Z,4.1
2023-01-30T00:26:05.569Z,5.5
2023-01-30T00:32:25.626Z,5.5
2023-01-30T00:38:48.582Z,5.4
2023-01-30T00:45:08.480Z,5.4
2023-01-30T00:51:31.675Z,4.2
2023-01-30T00:57:51.505Z,4.2
2023-01-30T01:04:14.647Z,4.5
2023-01-30T01:10:34.499Z,4.5
2023-01-30T01:16:57.692Z,4.8
2023-01-30T01:23:17.617Z,4.8
2023-01-30T01:29:40.544Z,4
2023-01-30T01:36:00.516Z,4
2023-01-30T01:42:23.592Z,4.8
2023-01-30T01:48:43.589Z,4.8
2023-01-30T01:55:06.623Z,6.5
2023-01-30T02:01:26.712Z,6.5
2023-01-30T02:07:49.801Z,4.2
2023-01-30T02:14:09.649Z,4.2
2023-01-30T02:20:32.576Z,6.3
2023-01-30T02:26:52.623Z,6.3
2023-01-30T02:33:15.614Z,4.7
2023-01-30T02:39:35.513Z,4.7
2023-01-30T02:45:58.741Z,4.2
2023-01-30T02:52:18.665Z,4.2
2023-01-30T02:58:41.659Z,3.5
2023-01-30T03:05:01.610Z,3.5
2023-01-30T03:11:24.595Z,5
2023-01-30T03:17:44.471Z,5
2023-01-30T03:24:07.532Z,3.2
2023-01-30T03:30:27.581Z,3.2
2023-01-30T03:36:50.750Z,3.2
2023-01-30T03:43:10.592Z,3.2
2023-01-30T03:49:33.653Z,4.7
2023-01-30T03:55:53.541Z,4.7
2023-01-30T04:02:16.550Z,3.4
2023-01-30T04:08:36.660Z,3.4
2023-01-30T04:24:10.460Z,4.6
2023-01-30T04:30:30.548Z,4.6
2023-01-30T04:36:53.647Z,4.3
2023-01-30T04:43:13.529Z,4.3
2023-01-30T04:49:36.546Z,2
2023-01-30T04:55:56.509Z,2
2023-01-30T05:02:20.903Z,3.6
2023-01-30T05:08:39.584Z,3.6
2023-01-30T05:15:02.540Z,1.9
2023-01-30T05:21:22.756Z,1.9
2023-01-30T05:27:45.831Z,3.8
2023-01-30T05:34:05.543Z,3.8
2023-01-30T05:40:28.515Z,3.4
2023-01-30T05:46:48.531Z,3.4
2023-01-30T05:53:11.653Z,4.1
2023-01-30T05:59:31.622Z,4.1
2023-01-30T06:05:54.715Z,2
2023-01-30T06:12:14.599Z,2
2023-01-30T06:18:37.640Z,4.8
2023-01-30T06:24:57.725Z,4.8
2023-01-30T06:31:20.609Z,7.4
2023-01-30T06:37:40.702Z,7.4
2023-01-30T06:44:03.615Z,5.3
2023-01-30T06:50:23.546Z,5.3
2023-01-30T06:56:46.607Z,3.6
2023-01-30T07:03:06.585Z,3.6
2023-01-30T07:09:29.692Z,3
2023-01-30T07:15:49.614Z,3
2023-01-30T07:22:12.564Z,1.6
2023-01-30T07:28:32.490Z,1.6
2023-01-30T07:34:55.555Z,1.4
2023-01-30T07:41:15.609Z,1.4
2023-01-30T07:47:38.603Z,0.6
2023-01-30T07:53:58.685Z,0.6
2023-01-30T08:00:21.700Z,1.5
2023-01-30T08:06:41.589Z,1.5
2023-01-30T08:13:04.720Z,0.5
2023-01-30T08:19:24.487Z,0.5
2023-01-30T08:25:47.640Z,3
2023-01-30T08:32:07.695Z,3
2023-01-30T08:38:30.658Z,3.1
2023-01-30T08:44:50.634Z,3.1
2023-01-30T08:51:13.649Z,3.2
2023-01-30T08:57:33.621Z,3.2
2023-01-30T09:03:56.624Z,0.8
2023-01-30T09:10:16.765Z,0.8
2023-01-30T09:34:16.450Z,8
2023-01-30T09:40:39.574Z,8
2023-01-30T09:46:59.649Z,8
2023-01-30T09:53:22.575Z,0.9
2023-01-30T09:59:42.552Z,0.9
2023-01-30T10:06:05.651Z,0.7
2023-01-30T10:12:25.550Z,0.7
2023-01-30T10:18:48.567Z,2.1
2023-01-30T10:25:08.535Z,2.1
2023-01-30T10:31:31.781Z,1.3
2023-01-30T10:37:51.617Z,1.3
2023-01-30T10:44:14.799Z,1.9
2023-01-30T10:50:34.906Z,1.9
2023-01-30T10:56:57.554Z,0.4
2023-01-30T11:03:17.718Z,0.4
2023-01-30T11:09:40.600Z,1.2
2023-01-30T11:16:00.619Z,1.2
2023-01-30T11:22:23.616Z,0.3
2023-01-30T11:28:43.693Z,0.3
2023-01-30T11:35:06.705Z,0.1
2023-01-30T11:41:26.608Z,0.1
2023-01-30T11:47:57.479Z,0.5
2023-01-30T11:54:09.726Z,0.5
2023-01-30T12:00:32.570Z,0.8
2023-01-30T12:06:52.660Z,0.8
2023-01-30T12:13:15.522Z,2.5
2023-01-30T12:19:36.637Z,2.5
2023-01-30T12:25:59.560Z,0.4
2023-01-30T12:32:17.509Z,0.4
2023-01-30T12:38:40.684Z,1.2
2023-01-30T12:45:00.709Z,1.2
2023-01-30T12:51:23.844Z,1.4
2023-01-30T12:57:43.487Z,1.4
2023-01-30T13:04:06.528Z,0.7
2023-01-30T13:10:26.819Z,0.7
2023-01-30T13:16:49.563Z,0.8
2023-01-30T13:23:09.680Z,0.8
2023-01-30T13:29:32.576Z,1.2
2023-01-30T13:35:52.534Z,1.2
2023-01-30T13:42:15.658Z,2.3
2023-01-30T13:48:35.710Z,2.3
2023-01-30T13:54:58.625Z,1.3
2023-01-30T14:01:18.677Z,1.3
2023-01-30T14:07:41.622Z,2
2023-01-30T14:14:01.694Z,2
2023-01-30T14:30:47.189Z,1.6
2023-01-30T14:37:07.517Z,1.6
2023-01-30T14:43:30.545Z,3.3
2023-01-30T14:49:50.540Z,3.3
2023-01-30T14:56:13.535Z,3.3
2023-01-30T15:02:33.720Z,3.3
2023-01-30T15:08:56.554Z,1.1
2023-01-30T15:15:16.939Z,1.1
2023-01-30T15:21:39.677Z,2.6
2023-01-30T15:27:59.624Z,2.6
2023-01-30T15:34:22.780Z,2
2023-01-30T15:40:42.560Z,2
2023-01-30T15:47:05.602Z,1.2
2023-01-30T15:53:25.675Z,1.2
2023-01-30T15:59:48.562Z,1
2023-01-30T16:06:08.655Z,1
2023-01-30T16:12:31.516Z,2.7
2023-01-30T16:18:51.640Z,2.7
2023-01-30T16:25:14.601Z,1.9
2023-01-30T16:31:34.804Z,1.9
2023-01-30T16:37:57.686Z,1.3
2023-01-30T16:44:17.607Z,1.3
2023-01-30T16:50:40.625Z,0.2
2023-01-30T16:57:00.556Z,0.2
2023-01-30T17:03:23.611Z,1.9
2023-01-30T17:09:43.596Z,1.9
2023-01-30T17:16:06.625Z,0.3
2023-01-30T17:22:26.567Z,0.3
2023-01-30T17:28:49.617Z,2.3
2023-01-30T17:35:09.632Z,2.3
2023-01-30T17:41:32.718Z,0.7
2023-01-30T17:47:52.607Z,0.7
2023-01-30T17:54:15.582Z,3.7
2023-01-30T18:00:35.604Z,3.7
2023-01-30T18:06:58.544Z,1.3
2023-01-30T18:13:18.645Z,1.3
2023-01-30T18:19:41.550Z,2
2023-01-30T18:26:01.571Z,2
2023-01-30T18:32:24.682Z,1.5
2023-01-30T18:38:44.521Z,1.5
2023-01-30T18:45:07.657Z,0.9
2023-01-30T18:51:27.564Z,0.9
2023-01-30T18:57:50.527Z,2.1
2023-01-30T19:04:10.599Z,2.1
2023-01-30T19:10:33.556Z,2.1
2023-01-30T19:16:53.619Z,2.1
2023-01-30T19:40:29.435Z,3.6
2023-01-30T19:46:52.503Z,3.6
2023-01-30T19:53:12.514Z,3.6
2023-01-30T19:59:35.539Z,1.3
2023-01-30T20:05:55.598Z,1.3
2023-01-30T20:12:18.646Z,2
2023-01-30T20:18:38.662Z,2
2023-01-30T20:25:01.590Z,3.9
2023-01-30T20:31:21.718Z,3.9
2023-01-30T20:37:44.555Z,2.7
2023-01-30T20:44:04.960Z,2.7
2023-01-30T20:50:27.619Z,1.4
2023-01-30T20:56:47.679Z,1.4
2023-01-30T21:03:10.642Z,1.9
2023-01-30T21:09:30.537Z,1.9
2023-01-30T21:15:53.681Z,2.4
2023-01-30T21:22:13.542Z,2.4
2023-01-30T21:28:36.922Z,1.7
2023-01-30T21:34:56.647Z,1.7
2023-01-30T21:41:19.642Z,2.3
2023-01-30T21:47:39.950Z,2.3
2023-01-30T21:54:02.583Z,2.6
2023-01-30T22:00:22.589Z,2.6
2023-01-30T22:06:45.693Z,2.2
2023-01-30T22:13:05.574Z,2.2
2023-01-30T22:19:28.596Z,1.8
2023-01-30T22:25:48.889Z,1.8
2023-01-30T22:32:11.740Z,2.9
2023-01-30T22:38:31.573Z,2.9
2023-01-30T22:44:54.655Z,5
2023-01-30T22:51:14.650Z,5
2023-01-30T22:57:38.001Z,3.4
2023-01-30T23:21:51.528Z,5.3
2023-01-30T23:28:11.486Z,5.3
2023-01-30T23:34:34.540Z,5.3
2023-01-30T23:40:54.631Z,5.3
2023-01-30T23:47:17.621Z,1.3
2023-01-30T23:53:37.547Z,1.3
